createdAt,value
2016-10-12T00:00:37.624Z,966.18
2016-10-12T00:01:37.584Z,966.16
2016-10-12T00:02:37.544Z,966.13
2016-10-12T00:03:37.505Z,966.13
2016-10-12T00:04:37.467Z,966.17
2016-10-12T00:05:37.429Z,966.12
2016-10-12T00:06:37.389Z,966.15
2016-10-12T00:07:37.351Z,966.16
2016-10-12T00:08:37.311Z,966.13
2016-10-12T00:09:37.273Z,966.14
2016-10-12T00:10:37.234Z,966.18
2016-10-12T00:11:37.195Z,966.2
2016-10-12T00:12:37.156Z,966.17
2016-10-12T00:13:37.116Z,966.19
2016-10-12T00:14:37.078Z,966.18
2016-10-12T00:15:37.041Z,966.17
2016-10-12T00:16:37.001Z,966.14
2016-10-12T00:17:36.961Z,966.17
2016-10-12T00:18:36.920Z,966.16
2016-10-12T00:19:36.884Z,966.25
2016-10-12T00:20:36.843Z,966.16
2016-10-12T00:21:36.804Z,966.2
2016-10-12T00:22:36.764Z,966.18
2016-10-12T00:23:36.726Z,966.21
2016-10-12T00:24:36.686Z,966.19
2016-10-12T00:25:36.648Z,966.2
2016-10-12T00:26:36.609Z,966.19
2016-10-12T00:27:36.571Z,966.19
2016-10-12T00:28:36.530Z,966.17
2016-10-12T00:29:36.493Z,966.12
2016-10-12T00:30:36.456Z,966.16
2016-10-12T00:31:36.413Z,966.15
2016-10-12T00:32:36.374Z,966.16
2016-10-12T00:33:36.336Z,966.16
2016-10-12T00:34:36.297Z,966.1
2016-10-12T00:35:36.258Z,966.14
2016-10-12T00:36:36.218Z,966.19
2016-10-12T00:37:36.179Z,966.15
2016-10-12T00:38:36.140Z,966.14
2016-10-12T00:39:36.103Z,966.15
2016-10-12T00:40:36.062Z,966.16
2016-10-12T00:41:36.023Z,966.16
2016-10-12T00:42:35.983Z,966.17
2016-10-12T00:43:35.945Z,966.16
2016-10-12T00:44:35.906Z,966.14
2016-10-12T00:45:35.866Z,966.17
2016-10-12T00:46:35.826Z,966.18
2016-10-12T00:47:35.788Z,966.15
2016-10-12T00:48:35.750Z,966.11
2016-10-12T00:49:35.712Z,966.1
2016-10-12T00:50:35.672Z,966.13
2016-10-12T00:51:35.632Z,966.13
2016-10-12T00:52:35.595Z,966.11
2016-10-12T00:53:35.555Z,966.12
2016-10-12T00:54:35.516Z,966.1
2016-10-12T00:55:35.477Z,966.12
2016-10-12T00:56:35.439Z,966.11
2016-10-12T00:57:35.397Z,966.13
2016-10-12T00:58:35.360Z,966.09
2016-10-12T00:59:35.322Z,966.11
2016-10-12T01:00:35.282Z,966.1
2016-10-12T01:01:35.240Z,966.12
2016-10-12T01:02:35.203Z,966.15
2016-10-12T01:03:35.164Z,966.09
2016-10-12T01:04:35.124Z,966.13
2016-10-12T01:05:35.085Z,966.11
2016-10-12T01:06:35.046Z,966.07
2016-10-12T01:07:35.007Z,966.1
2016-10-12T01:08:34.967Z,966.14
2016-10-12T01:09:34.929Z,966.12
2016-10-12T01:10:34.889Z,966.16
2016-10-12T01:11:34.851Z,966.16
2016-10-12T01:12:34.812Z,966.12
2016-10-12T01:13:34.771Z,966.15
2016-10-12T01:14:34.734Z,966.14
2016-10-12T01:15:34.694Z,966.09
2016-10-12T01:16:34.655Z,966.13
2016-10-12T01:17:34.616Z,966.15
2016-10-12T01:18:34.577Z,966.19
2016-10-12T01:19:34.538Z,966.15
2016-10-12T01:20:34.499Z,966.16
2016-10-12T01:21:34.459Z,966.15
2016-10-12T01:22:34.425Z,966.14
2016-10-12T01:23:34.381Z,966.11
2016-10-12T01:24:34.342Z,966.13
2016-10-12T01:25:34.304Z,966.11
2016-10-12T01:26:34.264Z,966.14
2016-10-12T01:27:34.226Z,966.13
2016-10-12T01:28:34.185Z,966.08
2016-10-12T01:29:34.147Z,966.1
2016-10-12T01:30:34.106Z,966.09
2016-10-12T01:31:34.069Z,966.08
2016-10-12T01:32:34.029Z,966.09
2016-10-12T01:33:33.991Z,966.06
2016-10-12T01:34:33.957Z,966.08
2016-10-12T01:35:33.912Z,966.08
2016-10-12T01:36:33.873Z,966.05
2016-10-12T01:37:33.838Z,966.04
2016-10-12T01:38:33.794Z,966.05
2016-10-12T01:39:33.756Z,966.04
2016-10-12T01:40:33.717Z,966.01
2016-10-12T01:41:33.678Z,965.97
2016-10-12T01:42:33.638Z,966.02
2016-10-12T01:43:33.601Z,966.02
2016-10-12T01:44:33.561Z,966.04
2016-10-12T01:45:33.521Z,966.02
2016-10-12T01:46:33.483Z,966.09
2016-10-12T01:47:33.443Z,966.06
2016-10-12T01:48:33.404Z,966.07
2016-10-12T01:49:33.366Z,966.04
2016-10-12T01:50:33.326Z,966.07
2016-10-12T01:51:33.288Z,966.05
2016-10-12T01:52:33.251Z,966.09
2016-10-12T01:53:33.209Z,966.08
2016-10-12T01:54:33.170Z,966.05
2016-10-12T01:55:33.131Z,966.04
2016-10-12T01:56:33.091Z,966.01
2016-10-12T01:57:33.051Z,966.03
2016-10-12T01:58:33.012Z,966.01
2016-10-12T01:59:32.971Z,965.99
2016-10-12T02:00:32.936Z,966.03
2016-10-12T02:01:32.894Z,966.02
2016-10-12T02:02:32.856Z,966.01
2016-10-12T02:03:32.816Z,966.01
2016-10-12T02:04:32.776Z,966.03
2016-10-12T02:05:32.739Z,965.98
2016-10-12T02:06:32.698Z,965.98
2016-10-12T02:07:32.665Z,965.99
2016-10-12T02:08:32.619Z,966.02
2016-10-12T02:09:32.580Z,965.99
2016-10-12T02:10:32.541Z,965.97
2016-10-12T02:11:32.502Z,965.97
2016-10-12T02:12:32.464Z,965.94
2016-10-12T02:13:32.424Z,965.94
2016-10-12T02:14:32.386Z,965.97
2016-10-12T02:15:32.344Z,965.96
2016-10-12T02:16:32.304Z,965.98
2016-10-12T02:17:32.266Z,965.99
2016-10-12T02:18:32.227Z,966.01
2016-10-12T02:19:32.188Z,965.99
2016-10-12T02:20:32.149Z,965.96
2016-10-12T02:21:32.108Z,965.98
2016-10-12T02:22:32.069Z,965.96
2016-10-12T02:23:32.032Z,965.96
2016-10-12T02:24:31.993Z,965.97
2016-10-12T02:25:31.952Z,965.94
2016-10-12T02:26:31.911Z,965.98
2016-10-12T02:27:31.873Z,965.93
2016-10-12T02:28:31.833Z,965.91
2016-10-12T02:29:31.793Z,965.93
2016-10-12T02:30:31.755Z,965.94
2016-10-12T02:31:31.716Z,965.93
2016-10-12T02:32:31.675Z,965.93
2016-10-12T02:33:31.637Z,965.91
2016-10-12T02:34:31.597Z,965.97
2016-10-12T02:35:31.559Z,965.95
2016-10-12T02:36:31.519Z,965.9
2016-10-12T02:37:31.481Z,965.94
2016-10-12T02:38:31.443Z,965.92
2016-10-12T02:39:31.401Z,965.88
2016-10-12T02:40:31.361Z,965.92
2016-10-12T02:41:31.324Z,965.93
2016-10-12T02:42:31.284Z,965.91
2016-10-12T02:43:31.243Z,965.91
2016-10-12T02:44:31.204Z,965.88
2016-10-12T02:45:31.168Z,965.91
2016-10-12T02:46:31.127Z,965.89
2016-10-12T02:47:31.088Z,965.91
2016-10-12T02:48:31.047Z,965.92
2016-10-12T02:49:31.011Z,965.89
2016-10-12T02:50:30.968Z,965.86
2016-10-12T02:51:30.929Z,965.87
2016-10-12T02:52:30.891Z,965.86
2016-10-12T02:53:30.851Z,965.86
2016-10-12T02:54:30.812Z,965.86
2016-10-12T02:55:30.774Z,965.85
2016-10-12T02:56:30.732Z,965.86
2016-10-12T02:57:30.695Z,965.89
2016-10-12T02:58:30.654Z,965.85
2016-10-12T02:59:30.616Z,965.87
2016-10-12T03:00:30.576Z,965.84
2016-10-12T03:01:30.536Z,965.83
2016-10-12T03:02:30.498Z,965.81
2016-10-12T03:03:30.459Z,965.83
2016-10-12T03:04:30.419Z,965.84
2016-10-12T03:05:30.379Z,965.82
2016-10-12T03:06:30.341Z,965.84
2016-10-12T03:07:30.301Z,965.8
2016-10-12T03:08:30.262Z,965.82
2016-10-12T03:09:30.221Z,965.85
2016-10-12T03:10:30.183Z,965.84
2016-10-12T03:11:30.144Z,965.83
2016-10-12T03:12:30.105Z,965.82
2016-10-12T03:13:30.064Z,965.82
2016-10-12T03:14:30.026Z,965.8
2016-10-12T03:15:29.987Z,965.84
2016-10-12T03:16:29.949Z,965.8
2016-10-12T03:17:29.907Z,965.79
2016-10-12T03:18:29.869Z,965.78
2016-10-12T03:19:29.829Z,965.82
2016-10-12T03:20:29.791Z,965.78
2016-10-12T03:21:29.754Z,965.76
2016-10-12T03:22:29.712Z,965.82
2016-10-12T03:23:29.671Z,965.75
2016-10-12T03:24:29.634Z,965.76
2016-10-12T03:25:29.594Z,965.72
2016-10-12T03:26:29.555Z,965.75
2016-10-12T03:27:29.517Z,965.69
2016-10-12T03:28:29.478Z,965.69
2016-10-12T03:29:29.437Z,965.73
2016-10-12T03:30:29.397Z,965.73
2016-10-12T03:31:29.359Z,965.7
2016-10-12T03:32:29.319Z,965.71
2016-10-12T03:33:29.278Z,965.73
2016-10-12T03:34:29.239Z,965.75
2016-10-12T03:35:29.201Z,965.7
2016-10-12T03:36:29.162Z,965.73
2016-10-12T03:37:29.122Z,965.7
2016-10-12T03:38:29.086Z,965.75
2016-10-12T03:39:29.044Z,965.71
2016-10-12T03:40:29.005Z,965.75
2016-10-12T03:41:28.964Z,965.74
2016-10-12T03:42:28.926Z,965.74
2016-10-12T03:43:28.886Z,965.72
2016-10-12T03:44:28.845Z,965.7
2016-10-12T03:45:28.808Z,965.7
2016-10-12T03:46:28.767Z,965.7
2016-10-12T03:47:28.729Z,965.74
2016-10-12T03:48:28.689Z,965.74
2016-10-12T03:49:28.649Z,965.72
2016-10-12T03:50:28.611Z,965.67
2016-10-12T03:51:28.572Z,965.7
2016-10-12T03:52:28.531Z,965.66
2016-10-12T03:53:28.492Z,965.68
2016-10-12T03:54:28.457Z,965.66
2016-10-12T03:55:28.414Z,965.65
2016-10-12T03:56:28.374Z,965.65
2016-10-12T03:57:28.335Z,965.62
2016-10-12T03:58:28.296Z,965.66
2016-10-12T03:59:28.258Z,965.64
2016-10-12T04:00:28.217Z,965.65
2016-10-12T04:01:28.179Z,965.67
2016-10-12T04:02:28.140Z,965.66
2016-10-12T04:03:28.098Z,965.67
2016-10-12T04:04:28.060Z,965.65
2016-10-12T04:05:28.023Z,965.68
2016-10-12T04:06:27.980Z,965.65
2016-10-12T04:07:27.941Z,965.66
2016-10-12T04:08:27.911Z,965.68
2016-10-12T04:09:27.863Z,965.66
2016-10-12T04:10:27.825Z,965.65
2016-10-12T04:11:27.784Z,965.63
2016-10-12T04:12:27.748Z,965.67
2016-10-12T04:13:27.705Z,965.61
2016-10-12T04:14:27.666Z,965.65
2016-10-12T04:15:27.626Z,965.64
2016-10-12T04:16:27.588Z,965.61
2016-10-12T04:17:27.554Z,965.6
2016-10-12T04:18:27.508Z,965.63
2016-10-12T04:19:27.469Z,965.6
2016-10-12T04:20:27.431Z,965.62
2016-10-12T04:21:27.391Z,965.62
2016-10-12T04:22:27.352Z,965.55
2016-10-12T04:23:27.311Z,965.58
2016-10-12T04:24:27.273Z,965.58
2016-10-12T04:25:27.232Z,965.55
2016-10-12T04:26:27.193Z,965.6
2016-10-12T04:27:27.155Z,965.59
2016-10-12T04:28:27.116Z,965.57
2016-10-12T04:29:27.074Z,965.54
2016-10-12T04:30:27.035Z,965.57
2016-10-12T04:31:26.998Z,965.51
2016-10-12T04:32:26.959Z,965.53
2016-10-12T04:33:26.917Z,965.51
2016-10-12T04:34:26.877Z,965.51
2016-10-12T04:35:26.838Z,965.5
2016-10-12T04:36:26.799Z,965.53
2016-10-12T04:37:26.762Z,965.53
2016-10-12T04:38:26.719Z,965.49
2016-10-12T04:39:26.681Z,965.48
2016-10-12T04:40:26.642Z,965.54
2016-10-12T04:41:26.601Z,965.5
2016-10-12T04:42:26.562Z,965.46
2016-10-12T04:43:26.522Z,965.45
2016-10-12T04:44:26.483Z,965.45
2016-10-12T04:45:26.445Z,965.47
2016-10-12T04:46:26.404Z,965.46
2016-10-12T04:47:26.363Z,965.46
2016-10-12T04:48:26.323Z,965.44
2016-10-12T04:49:26.284Z,965.47
2016-10-12T04:50:26.247Z,965.45
2016-10-12T04:51:26.204Z,965.42
2016-10-12T04:52:26.167Z,965.45
2016-10-12T04:53:26.124Z,965.45
2016-10-12T04:54:26.088Z,965.43
2016-10-12T04:55:26.046Z,965.42
2016-10-12T04:56:26.008Z,965.43
2016-10-12T04:57:25.967Z,965.43
2016-10-12T04:58:25.925Z,965.45
2016-10-12T04:59:25.887Z,965.41
2016-10-12T05:00:25.848Z,965.42
2016-10-12T05:01:25.808Z,965.41
2016-10-12T05:02:25.766Z,965.4
2016-10-12T05:03:25.729Z,965.42
2016-10-12T05:04:25.691Z,965.41
2016-10-12T05:05:25.646Z,965.43
2016-10-12T05:06:25.609Z,965.44
2016-10-12T05:07:25.568Z,965.41
2016-10-12T05:08:25.531Z,965.44
2016-10-12T05:09:25.490Z,965.39
2016-10-12T05:10:25.449Z,965.42
2016-10-12T05:11:25.409Z,965.48
2016-10-12T05:12:25.369Z,965.47
2016-10-12T05:13:25.327Z,965.46
2016-10-12T05:14:25.289Z,965.42
2016-10-12T05:15:25.249Z,965.43
2016-10-12T05:16:25.207Z,965.4
2016-10-12T05:17:25.167Z,965.37
2016-10-12T05:18:25.128Z,965.38
2016-10-12T05:19:25.088Z,965.33
2016-10-12T05:20:25.048Z,965.37
2016-10-12T05:21:25.007Z,965.36
2016-10-12T05:22:24.967Z,965.35
2016-10-12T05:23:24.929Z,965.34
2016-10-12T05:24:24.886Z,965.37
2016-10-12T05:25:24.847Z,965.4
2016-10-12T05:26:24.806Z,965.39
2016-10-12T05:27:24.764Z,965.38
2016-10-12T05:28:24.726Z,965.4
2016-10-12T05:29:24.686Z,965.42
2016-10-12T05:30:24.646Z,965.45
2016-10-12T05:31:24.606Z,965.46
2016-10-12T05:32:24.564Z,965.47
2016-10-12T05:33:24.526Z,965.43
2016-10-12T05:34:24.484Z,965.47
2016-10-12T05:35:24.444Z,965.42
2016-10-12T05:36:24.404Z,965.43
2016-10-12T05:37:24.363Z,965.42
2016-10-12T05:38:24.324Z,965.47
2016-10-12T05:39:24.283Z,965.42
2016-10-12T05:40:24.242Z,965.44
2016-10-12T05:41:24.203Z,965.46
2016-10-12T05:42:24.161Z,965.47
2016-10-12T05:43:24.121Z,965.45
2016-10-12T05:44:24.081Z,965.46
2016-10-12T05:45:24.041Z,965.51
2016-10-12T05:46:24.001Z,965.47
2016-10-12T05:47:23.961Z,965.49
2016-10-12T05:48:23.918Z,965.52
2016-10-12T05:49:23.878Z,965.53
2016-10-12T05:50:23.839Z,965.55
2016-10-12T05:51:23.800Z,965.55
2016-10-12T05:52:23.758Z,965.55
2016-10-12T05:53:23.717Z,965.58
2016-10-12T05:54:23.676Z,965.59
2016-10-12T05:55:23.637Z,965.59
2016-10-12T05:56:23.596Z,965.59
2016-10-12T05:57:23.555Z,965.55
2016-10-12T05:58:23.515Z,965.63
2016-10-12T05:59:23.473Z,965.62
2016-10-12T06:00:23.435Z,965.62
2016-10-12T06:01:23.393Z,965.63
2016-10-12T06:02:23.353Z,965.62
2016-10-12T06:03:23.312Z,965.65
2016-10-12T06:04:23.271Z,965.62
2016-10-12T06:05:23.232Z,965.64
2016-10-12T06:06:23.192Z,965.65
2016-10-12T06:07:23.152Z,965.68
2016-10-12T06:08:23.111Z,965.63
2016-10-12T06:09:23.070Z,965.65
2016-10-12T06:10:23.030Z,965.67
2016-10-12T06:11:22.988Z,965.7
2016-10-12T06:12:22.949Z,965.78
2016-10-12T06:13:22.917Z,965.77
2016-10-12T06:14:22.869Z,965.8
2016-10-12T06:15:22.827Z,965.78
2016-10-12T06:16:22.790Z,965.85
2016-10-12T06:17:22.751Z,965.83
2016-10-12T06:18:22.713Z,965.81
2016-10-12T06:19:22.669Z,965.83
2016-10-12T06:20:22.630Z,965.83
2016-10-12T06:21:22.591Z,965.81
2016-10-12T06:22:22.550Z,965.78
2016-10-12T06:23:22.511Z,965.77
2016-10-12T06:24:22.471Z,965.79
2016-10-12T06:25:22.431Z,965.78
2016-10-12T06:26:22.393Z,965.79
2016-10-12T06:27:22.354Z,965.79
2016-10-12T06:28:22.316Z,965.79
2016-10-12T06:29:22.276Z,965.81
2016-10-12T06:30:22.238Z,965.83
2016-10-12T06:31:22.199Z,965.77
2016-10-12T06:32:22.164Z,965.81
2016-10-12T06:33:22.122Z,965.83
2016-10-12T06:34:22.084Z,965.86
2016-10-12T06:35:22.047Z,965.88
2016-10-12T06:36:22.009Z,965.88
2016-10-12T06:37:21.971Z,965.9
2016-10-12T06:38:21.934Z,965.94
2016-10-12T06:39:21.895Z,965.91
2016-10-12T06:40:21.863Z,965.91
2016-10-12T06:41:21.822Z,965.93
2016-10-12T06:42:21.783Z,965.96
2016-10-12T06:43:21.749Z,965.99
2016-10-12T06:44:21.710Z,965.96
2016-10-12T06:45:21.675Z,965.94
2016-10-12T06:46:21.639Z,965.96
2016-10-12T06:47:21.601Z,966
2016-10-12T06:48:21.566Z,966
2016-10-12T06:49:21.530Z,966.01
2016-10-12T06:50:21.494Z,966.01
2016-10-12T06:51:21.459Z,966.03
2016-10-12T06:52:21.424Z,966.09
2016-10-12T06:53:21.389Z,966.1
2016-10-12T06:54:21.354Z,966.08
2016-10-12T06:55:21.319Z,966.09
2016-10-12T06:56:21.286Z,966.09
2016-10-12T06:57:21.250Z,966.13
2016-10-12T06:58:21.215Z,966.14
2016-10-12T06:59:21.181Z,966.16
2016-10-12T07:00:21.147Z,966.17
2016-10-12T07:01:21.115Z,966.19
2016-10-12T07:02:21.080Z,966.22
2016-10-12T07:03:21.046Z,966.25
2016-10-12T07:04:21.014Z,966.22
2016-10-12T07:05:20.983Z,966.27
2016-10-12T07:06:20.949Z,966.27
2016-10-12T07:07:20.916Z,966.28
2016-10-12T07:08:20.882Z,966.27
2016-10-12T07:09:20.853Z,966.3
2016-10-12T07:10:20.818Z,966.36
2016-10-12T07:11:20.786Z,966.34
2016-10-12T07:12:20.755Z,966.37
2016-10-12T07:13:20.723Z,966.31
2016-10-12T07:14:20.689Z,966.36
2016-10-12T07:15:20.662Z,966.35
2016-10-12T07:16:20.626Z,966.28
2016-10-12T07:17:20.597Z,966.29
2016-10-12T07:18:20.564Z,966.3
2016-10-12T07:19:20.535Z,966.29
2016-10-12T07:20:20.503Z,966.33
2016-10-12T07:21:20.472Z,966.35
2016-10-12T07:22:20.441Z,966.31
2016-10-12T07:23:20.411Z,966.32
2016-10-12T07:24:20.382Z,966.35
2016-10-12T07:25:20.351Z,966.4
2016-10-12T07:26:20.320Z,966.39
2016-10-12T07:27:20.291Z,966.36
2016-10-12T07:28:20.261Z,966.44
2016-10-12T07:29:20.232Z,966.37
2016-10-12T07:30:20.203Z,966.39
2016-10-12T07:31:20.174Z,966.38
2016-10-12T07:32:20.149Z,966.36
2016-10-12T07:33:20.115Z,966.39
2016-10-12T07:34:20.091Z,966.47
2016-10-12T07:35:20.056Z,966.48
2016-10-12T07:36:20.029Z,966.42
2016-10-12T07:37:20.000Z,966.43
2016-10-12T07:38:19.970Z,966.48
2016-10-12T07:39:19.941Z,966.45
2016-10-12T07:40:19.913Z,966.41
2016-10-12T07:41:19.883Z,966.42
2016-10-12T07:42:19.855Z,966.49
2016-10-12T07:43:19.826Z,966.48
2016-10-12T07:44:19.797Z,966.44
2016-10-12T07:45:19.769Z,966.42
2016-10-12T07:46:19.742Z,966.43
2016-10-12T07:47:19.712Z,966.44
2016-10-12T07:48:19.682Z,966.42
2016-10-12T07:49:19.654Z,966.38
2016-10-12T07:50:19.626Z,966.38
2016-10-12T07:51:19.598Z,966.35
2016-10-12T07:52:19.569Z,966.39
2016-10-12T07:53:19.538Z,966.44
2016-10-12T07:54:19.542Z,966.46
2016-10-12T07:55:19.482Z,966.46
2016-10-12T07:56:19.454Z,966.41
2016-10-12T07:57:19.424Z,966.46
2016-10-12T07:58:19.396Z,966.5
2016-10-12T07:59:19.368Z,966.51
2016-10-12T08:00:19.340Z,966.49
2016-10-12T08:01:19.312Z,966.36
2016-10-12T08:02:19.282Z,966.63
2016-10-12T08:03:19.255Z,966.59
2016-10-12T08:04:19.227Z,966.57
2016-10-12T08:05:19.197Z,966.61
2016-10-12T08:06:19.168Z,966.58
2016-10-12T08:07:19.141Z,966.62
2016-10-12T08:08:19.111Z,966.68
2016-10-12T08:09:19.083Z,966.69
2016-10-12T08:10:19.055Z,966.72
2016-10-12T08:11:19.026Z,966.77
2016-10-12T08:12:18.999Z,966.72
2016-10-12T08:13:18.970Z,966.66
2016-10-12T08:14:18.942Z,966.69
2016-10-12T08:15:18.912Z,966.71
2016-10-12T08:16:18.885Z,966.66
2016-10-12T08:17:18.858Z,966.72
2016-10-12T08:18:18.830Z,966.74
2016-10-12T08:19:18.801Z,966.72
2016-10-12T08:20:18.772Z,966.76
2016-10-12T08:21:18.745Z,966.78
2016-10-12T08:22:18.719Z,966.71
2016-10-12T08:23:18.689Z,966.7
2016-10-12T08:24:18.662Z,966.75
2016-10-12T08:25:18.634Z,966.74
2016-10-12T08:26:18.607Z,966.74
2016-10-12T08:27:18.579Z,966.8
2016-10-12T08:28:18.554Z,966.73
2016-10-12T08:29:18.525Z,966.75
2016-10-12T08:30:18.500Z,966.74
2016-10-12T08:31:18.471Z,966.76
2016-10-12T08:32:18.445Z,966.79
2016-10-12T08:33:18.419Z,966.77
2016-10-12T08:34:18.391Z,966.82
2016-10-12T08:35:18.364Z,966.87
2016-10-12T08:36:18.340Z,966.77
2016-10-12T08:37:18.312Z,966.85
2016-10-12T08:38:18.286Z,966.83
2016-10-12T08:39:18.259Z,966.82
2016-10-12T08:40:18.233Z,966.89
2016-10-12T08:41:18.207Z,966.88
2016-10-12T08:42:18.179Z,966.91
2016-10-12T08:43:18.154Z,966.95
2016-10-12T08:44:18.128Z,966.91
2016-10-12T08:45:18.101Z,966.88
2016-10-12T08:46:18.074Z,966.94
2016-10-12T08:47:18.051Z,966.92
2016-10-12T08:48:18.022Z,966.94
2016-10-12T08:49:17.997Z,966.91
2016-10-12T08:50:17.972Z,966.94
2016-10-12T08:51:17.946Z,966.96
2016-10-12T08:52:17.920Z,966.98
2016-10-12T08:53:17.895Z,966.97
2016-10-12T08:54:17.871Z,966.98
2016-10-12T08:55:17.846Z,967.05
2016-10-12T08:56:17.820Z,966.94
2016-10-12T08:57:17.795Z,966.96
2016-10-12T08:58:17.779Z,966.97
2016-10-12T08:59:17.747Z,966.89
2016-10-12T09:00:17.721Z,966.77
2016-10-12T09:01:17.697Z,966.77
2016-10-12T09:02:17.672Z,966.71
2016-10-12T09:03:17.647Z,966.62
2016-10-12T09:04:17.622Z,966.58
2016-10-12T09:05:17.598Z,966.61
2016-10-12T09:06:17.574Z,966.63
2016-10-12T09:07:17.547Z,966.58
2016-10-12T09:08:17.524Z,966.61
2016-10-12T09:09:17.500Z,966.57
2016-10-12T09:10:17.474Z,966.56
2016-10-12T09:11:17.451Z,966.57
2016-10-12T09:12:17.426Z,966.5
2016-10-12T09:13:17.404Z,966.5
2016-10-12T09:14:17.377Z,966.52
2016-10-12T09:15:17.355Z,966.52
2016-10-12T09:16:17.331Z,966.52
2016-10-12T09:17:17.308Z,966.52
2016-10-12T09:18:17.283Z,966.54
2016-10-12T09:19:17.262Z,966.52
2016-10-12T09:20:17.237Z,966.5
2016-10-12T09:21:17.214Z,966.57
2016-10-12T09:22:17.190Z,966.51
2016-10-12T09:23:17.169Z,966.55
2016-10-12T09:24:17.145Z,966.55
2016-10-12T09:25:17.121Z,966.55
2016-10-12T09:26:17.098Z,966.49
2016-10-12T09:27:17.077Z,966.49
2016-10-12T09:28:17.052Z,966.59
2016-10-12T09:29:17.028Z,966.75
2016-10-12T09:30:17.003Z,966.77
2016-10-12T09:31:16.982Z,966.71
2016-10-12T09:32:16.959Z,966.77
2016-10-12T09:33:16.937Z,966.81
2016-10-12T09:34:16.913Z,966.8
2016-10-12T09:35:16.896Z,966.83
2016-10-12T09:36:16.867Z,966.82
2016-10-12T09:37:16.844Z,966.84
2016-10-12T09:38:16.823Z,966.61
2016-10-12T09:39:16.797Z,966.81
2016-10-12T09:40:16.777Z,966.77
2016-10-12T09:41:16.752Z,966.66
2016-10-12T09:42:16.730Z,966.69
2016-10-12T09:43:16.707Z,966.71
2016-10-12T09:44:16.683Z,966.7
2016-10-12T09:45:16.661Z,966.73
2016-10-12T09:46:16.640Z,966.63
2016-10-12T09:47:16.613Z,966.66
2016-10-12T09:48:16.590Z,966.68
2016-10-12T09:49:16.567Z,966.64
2016-10-12T09:50:16.544Z,966.62
2016-10-12T09:51:16.520Z,966.7
2016-10-12T09:52:16.496Z,966.67
2016-10-12T09:53:16.472Z,966.71
2016-10-12T09:54:16.448Z,966.72
2016-10-12T09:55:16.425Z,966.74
2016-10-12T09:56:16.400Z,966.74
2016-10-12T09:57:16.378Z,966.69
2016-10-12T09:58:16.354Z,966.71
2016-10-12T09:59:16.329Z,966.7
2016-10-12T10:00:16.306Z,966.7
2016-10-12T10:01:16.280Z,966.71
2016-10-12T10:02:16.257Z,966.75
2016-10-12T10:03:16.234Z,966.76
2016-10-12T10:04:16.211Z,966.83
2016-10-12T10:05:16.186Z,966.85
2016-10-12T10:06:16.164Z,966.88
2016-10-12T10:07:16.138Z,966.86
2016-10-12T10:08:16.118Z,966.83
2016-10-12T10:09:16.092Z,966.83
2016-10-12T10:10:16.070Z,966.86
2016-10-12T10:11:16.046Z,966.3
2016-10-12T10:12:16.022Z,966.23
2016-10-12T10:13:15.998Z,966.8
2016-10-12T10:14:15.976Z,966.76
2016-10-12T10:15:15.950Z,966.8
2016-10-12T10:16:15.926Z,966.86
2016-10-12T10:17:15.902Z,966.78
2016-10-12T10:18:15.878Z,966.78
2016-10-12T10:19:15.854Z,966.22
2016-10-12T10:20:15.829Z,966.15
2016-10-12T10:21:15.805Z,966.1
2016-10-12T10:22:15.780Z,966.39
2016-10-12T10:23:15.753Z,966.58
2016-10-12T10:24:15.729Z,966.61
2016-10-12T10:25:15.703Z,966.62
2016-10-12T10:26:15.679Z,966.58
2016-10-12T10:27:15.651Z,966.62
2016-10-12T10:28:15.626Z,966.22
2016-10-12T10:29:15.606Z,966.5
2016-10-12T10:30:15.576Z,966.14
2016-10-12T10:31:15.553Z,966.28
2016-10-12T10:32:15.525Z,966.21
2016-10-12T10:33:15.499Z,966.35
2016-10-12T10:34:15.474Z,966.35
2016-10-12T10:35:15.448Z,966.34
2016-10-12T10:36:15.421Z,966.15
2016-10-12T10:37:15.397Z,966.38
2016-10-12T10:38:15.368Z,966.35
2016-10-12T10:39:15.343Z,966.2
2016-10-12T10:40:15.317Z,966.1
2016-10-12T10:41:15.291Z,966.33
2016-10-12T10:42:15.266Z,966.36
2016-10-12T10:43:15.238Z,966.65
2016-10-12T10:44:15.213Z,967.03
2016-10-12T10:45:15.187Z,966.97
2016-10-12T10:46:15.162Z,967
2016-10-12T10:47:15.135Z,967.11
2016-10-12T10:48:15.110Z,967.19
2016-10-12T10:49:15.085Z,967.2
2016-10-12T10:50:15.058Z,967.25
2016-10-12T10:51:15.033Z,967.23
2016-10-12T10:52:15.008Z,967.07
2016-10-12T10:53:14.981Z,966.47
2016-10-12T10:54:14.955Z,966.31
2016-10-12T10:55:14.931Z,966.17
2016-10-12T10:56:14.904Z,965.95
2016-10-12T10:57:14.880Z,965.93
2016-10-12T10:58:14.853Z,966.18
2016-10-12T10:59:14.829Z,965.92
2016-10-12T11:00:14.800Z,965.81
2016-10-12T11:01:14.774Z,965.87
2016-10-12T11:02:14.746Z,965.8
2016-10-12T11:03:14.720Z,965.81
2016-10-12T11:04:14.691Z,966.04
2016-10-12T11:05:14.664Z,966.01
2016-10-12T11:06:14.635Z,965.99
2016-10-12T11:07:14.606Z,966.01
2016-10-12T11:08:14.577Z,965.94
2016-10-12T11:09:14.550Z,965.95
2016-10-12T11:10:14.522Z,965.89
2016-10-12T11:11:14.493Z,965.84
2016-10-12T11:12:14.464Z,965.88
2016-10-12T11:13:14.435Z,965.8
2016-10-12T11:14:14.406Z,965.74
2016-10-12T11:15:14.378Z,966.08
2016-10-12T11:16:14.349Z,965.97
2016-10-12T11:17:14.319Z,965.87
2016-10-12T11:18:14.288Z,965.81
2016-10-12T11:19:14.260Z,965.78
2016-10-12T11:20:14.231Z,965.81
2016-10-12T11:21:14.202Z,965.7
2016-10-12T11:22:14.171Z,965.71
2016-10-12T11:23:14.143Z,965.7
2016-10-12T11:24:14.113Z,965.7
2016-10-12T11:25:14.082Z,965.68
2016-10-12T11:26:14.052Z,965.55
2016-10-12T11:27:14.026Z,965.56
2016-10-12T11:28:13.992Z,965.64
2016-10-12T11:29:13.962Z,965.67
2016-10-12T11:30:13.932Z,965.63
2016-10-12T11:31:13.901Z,965.65
2016-10-12T11:32:13.871Z,965.59
2016-10-12T11:33:13.838Z,965.6
2016-10-12T11:34:13.808Z,965.54
2016-10-12T11:35:13.778Z,965.52
2016-10-12T11:36:13.748Z,965.53
2016-10-12T11:37:13.714Z,965.53
2016-10-12T11:38:13.684Z,965.55
2016-10-12T11:39:13.654Z,965.62
2016-10-12T11:40:13.621Z,965.63
2016-10-12T11:41:13.589Z,965.56
2016-10-12T11:42:13.558Z,965.52
2016-10-12T11:43:13.527Z,965.48
2016-10-12T11:44:13.494Z,965.46
2016-10-12T11:45:13.463Z,965.42
2016-10-12T11:46:13.431Z,965.48
2016-10-12T11:47:13.399Z,965.42
2016-10-12T11:48:13.367Z,965.36
2016-10-12T11:49:13.335Z,965.3
2016-10-12T11:50:13.304Z,965.36
2016-10-12T11:51:13.271Z,965.33
2016-10-12T11:52:13.239Z,965.27
2016-10-12T11:53:13.208Z,965.24
2016-10-12T11:54:13.173Z,965.24
2016-10-12T11:55:13.142Z,965.22
2016-10-12T11:56:13.109Z,965.26
2016-10-12T11:57:13.076Z,965.2
2016-10-12T11:58:13.044Z,965.24
2016-10-12T11:59:13.012Z,965.2
2016-10-12T12:00:12.978Z,965.2
2016-10-12T12:01:12.945Z,965.16
2016-10-12T12:02:12.912Z,965.14
2016-10-12T12:03:12.879Z,965.15
2016-10-12T12:04:12.847Z,965.13
2016-10-12T12:05:12.814Z,965.14
2016-10-12T12:06:12.782Z,965.16
2016-10-12T12:07:12.749Z,965.12
2016-10-12T12:08:12.716Z,965.03
2016-10-12T12:09:12.682Z,965
2016-10-12T12:10:12.648Z,965
2016-10-12T12:11:12.616Z,964.97
2016-10-12T12:12:12.583Z,965.03
2016-10-12T12:13:12.550Z,964.99
2016-10-12T12:14:12.518Z,964.96
2016-10-12T12:15:12.485Z,964.98
2016-10-12T12:16:12.451Z,964.98
2016-10-12T12:17:12.418Z,965.01
2016-10-12T12:18:12.386Z,965.01
2016-10-12T12:19:12.350Z,964.92
2016-10-12T12:20:12.317Z,964.94
2016-10-12T12:21:12.283Z,964.92
2016-10-12T12:22:12.251Z,964.96
2016-10-12T12:23:12.217Z,964.9
2016-10-12T12:24:12.183Z,964.82
2016-10-12T12:25:12.150Z,964.87
2016-10-12T12:26:12.118Z,964.78
2016-10-12T12:27:12.083Z,964.81
2016-10-12T12:28:12.048Z,964.9
2016-10-12T12:29:12.014Z,964.73
2016-10-12T12:30:11.984Z,964.68
2016-10-12T12:31:11.947Z,964.75